createdAt,value
2022-07-31T00:04:14.427Z,0
2022-07-31T00:09:49.315Z,0
2022-07-31T00:14:39.469Z,0
2022-07-31T00:25:03.901Z,0
2022-07-31T00:30:16.165Z,0
2022-07-31T00:35:28.522Z,0
2022-07-31T00:40:40.791Z,0
2022-07-31T00:45:58.773Z,0
2022-07-31T00:51:05.492Z,0
2022-07-31T00:56:17.773Z,0
2022-07-31T01:01:30.032Z,0
2022-07-31T01:06:42.710Z,0
2022-07-31T01:11:54.539Z,0
2022-07-31T01:17:07.015Z,0
2022-07-31T01:22:32.744Z,0
2022-07-31T01:27:31.511Z,0
2022-07-31T01:32:44.123Z,0
2022-07-31T01:37:56.436Z,0
2022-07-31T01:43:08.684Z,0
2022-07-31T01:48:21.093Z,0
2022-07-31T01:53:33.236Z,0
2022-07-31T01:58:45.674Z,0
2022-07-31T02:04:00.500Z,0
2022-07-31T02:09:10.641Z,0
2022-07-31T02:19:35.541Z,0
2022-07-31T02:24:47.876Z,0
2022-07-31T02:30:00.199Z,0
2022-07-31T02:35:12.411Z,0
2022-07-31T02:40:24.869Z,0
2022-07-31T02:50:52.450Z,0
2022-07-31T02:56:04.800Z,0
2022-07-31T03:01:17.110Z,0
2022-07-31T03:06:29.353Z,0
2022-07-31T03:11:41.661Z,138
2022-07-31T03:16:54.191Z,542
2022-07-31T03:22:06.757Z,1058
2022-07-31T03:27:18.733Z,1741
2022-07-31T03:32:30.882Z,2465
2022-07-31T03:37:43.473Z,3201
2022-07-31T03:42:55.909Z,3916
2022-07-31T03:48:08.318Z,4420
2022-07-31T03:53:20.641Z,4733
2022-07-31T03:58:33.167Z,4984
2022-07-31T04:03:45.404Z,5110
2022-07-31T04:08:58.028Z,5156
2022-07-31T04:14:10.678Z,5108
2022-07-31T04:19:23.006Z,5103
2022-07-31T04:24:35.284Z,5156
2022-07-31T04:29:47.828Z,5216
2022-07-31T04:35:00.294Z,5193
2022-07-31T04:40:12.697Z,5181
2022-07-31T04:45:25.224Z,5216
2022-07-31T04:50:37.546Z,5200
2022-07-31T05:01:05.021Z,5216
2022-07-31T05:06:17.734Z,5216
2022-07-31T05:11:30.092Z,5177
2022-07-31T05:16:45.843Z,5223
2022-07-31T05:22:02.281Z,5202
2022-07-31T05:27:10.593Z,5218
2022-07-31T05:32:22.833Z,5184
2022-07-31T05:37:35.111Z,5188
2022-07-31T05:42:47.204Z,5152
2022-07-31T05:48:02.660Z,5221
2022-07-31T05:53:14.993Z,5221
2022-07-31T05:58:27.375Z,5204
2022-07-31T06:03:51.788Z,5216
2022-07-31T06:09:03.525Z,5089
2022-07-31T06:14:10.420Z,5161
2022-07-31T06:19:24.493Z,5193
2022-07-31T06:24:35.260Z,5198
2022-07-31T06:29:47.768Z,5227
2022-07-31T06:35:00.106Z,5230
2022-07-31T06:45:41.823Z,5200
2022-07-31T06:50:37.181Z,5172
2022-07-31T06:55:49.797Z,5202
2022-07-31T07:01:01.984Z,5237
2022-07-31T07:06:14.328Z,5184
2022-07-31T07:11:26.527Z,5234
2022-07-31T07:16:39.075Z,5239
2022-07-31T07:21:51.769Z,5170
2022-07-31T07:27:04.116Z,5241
2022-07-31T07:37:28.785Z,5241
2022-07-31T07:42:41.231Z,5200
2022-07-31T07:48:05.831Z,5211
2022-07-31T07:53:05.975Z,5195
2022-07-31T07:58:18.506Z,5195
2022-07-31T08:03:47.861Z,5218
2022-07-31T08:08:43.132Z,5133
2022-07-31T08:13:55.477Z,5207
2022-07-31T08:19:07.626Z,5218
2022-07-31T08:24:19.994Z,5085
2022-07-31T08:29:32.543Z,5221
2022-07-31T08:34:44.830Z,5255
2022-07-31T08:39:57.148Z,5195
2022-07-31T08:45:09.412Z,5260
2022-07-31T08:50:21.701Z,5184
2022-07-31T08:55:54.903Z,5262
2022-07-31T09:00:49.803Z,5115
2022-07-31T09:06:02.023Z,5262
2022-07-31T09:11:14.721Z,5168
2022-07-31T09:16:30.359Z,5198
2022-07-31T09:21:39.670Z,5264
2022-07-31T09:32:04.164Z,5198
2022-07-31T09:37:16.506Z,5129
2022-07-31T09:42:29.138Z,5193
2022-07-31T09:47:41.594Z,5211
2022-07-31T09:52:53.897Z,5244
2022-07-31T09:58:09.299Z,5269
2022-07-31T10:03:21.544Z,5223
2022-07-31T10:08:34.135Z,5273
2022-07-31T10:18:58.834Z,5278
2022-07-31T10:24:11.089Z,5218
2022-07-31T10:29:23.618Z,5276
2022-07-31T10:34:35.952Z,5186
2022-07-31T10:39:48.461Z,5253
2022-07-31T10:45:00.823Z,5232
2022-07-31T10:50:13.452Z,5244
2022-07-31T10:55:25.901Z,5218
2022-07-31T11:00:38.481Z,5211
2022-07-31T11:06:00.701Z,5239
2022-07-31T11:16:15.039Z,5248
2022-07-31T11:21:38.445Z,5225
2022-07-31T11:26:41.810Z,5294
2022-07-31T11:31:52.643Z,5267
2022-07-31T11:37:06.587Z,5296
2022-07-31T11:42:17.276Z,5280
2022-07-31T11:48:10.644Z,5283
2022-07-31T11:52:42.036Z,5227
2022-07-31T11:57:54.374Z,5276
2022-07-31T12:03:06.741Z,5299
2022-07-31T12:08:18.947Z,5244
2022-07-31T12:13:31.005Z,5216
2022-07-31T12:18:45.770Z,5244
2022-07-31T12:23:57.965Z,5246
2022-07-31T12:29:10.542Z,5280
2022-07-31T12:34:23.188Z,5285
2022-07-31T12:39:47.421Z,5260
2022-07-31T12:44:47.947Z,5269
2022-07-31T12:50:00.557Z,5290
2022-07-31T12:55:12.919Z,5248
2022-07-31T13:00:25.424Z,5260
2022-07-31T13:05:37.874Z,5299
2022-07-31T13:10:50.166Z,5234
2022-07-31T13:21:14.797Z,5273
2022-07-31T13:26:27.213Z,5257
2022-07-31T13:31:39.536Z,5280
2022-07-31T13:36:52.242Z,5331
2022-07-31T13:42:04.668Z,5264
2022-07-31T13:47:16.930Z,5296
2022-07-31T13:52:29.374Z,5269
2022-07-31T13:57:41.641Z,5317
2022-07-31T14:02:54.298Z,5241
2022-07-31T14:08:30.347Z,5294
2022-07-31T14:13:18.958Z,5303
2022-07-31T14:18:33.839Z,5303
2022-07-31T14:23:46.231Z,5280
2022-07-31T14:28:58.704Z,5315
2022-07-31T14:34:11.021Z,5248
2022-07-31T14:39:23.793Z,5317
2022-07-31T14:44:35.995Z,5280
2022-07-31T14:50:08.086Z,5303
2022-07-31T14:55:00.635Z,5317
2022-07-31T15:00:12.898Z,5301
2022-07-31T15:06:38.499Z,5319
2022-07-31T15:10:40.880Z,5290
2022-07-31T15:15:53.226Z,5260
2022-07-31T15:21:05.159Z,5315
2022-07-31T15:26:17.149Z,5271
2022-07-31T15:31:29.170Z,5285
2022-07-31T15:36:41.289Z,5313
2022-07-31T15:41:53.297Z,5260
2022-07-31T15:47:05.838Z,5269
2022-07-31T15:52:19.168Z,5267
2022-07-31T16:02:43.147Z,5294
2022-07-31T16:08:28.104Z,5250
2022-07-31T16:13:08.119Z,5239
2022-07-31T16:18:20.709Z,5239
2022-07-31T16:23:33.027Z,5301
2022-07-31T16:28:45.490Z,5310
2022-07-31T16:33:57.876Z,5276
2022-07-31T16:39:20.171Z,5329
2022-07-31T16:44:22.489Z,5290
2022-07-31T16:49:36.488Z,5326
2022-07-31T16:54:47.212Z,5326
2022-07-31T16:59:59.367Z,5280
2022-07-31T17:05:11.647Z,5283
2022-07-31T17:10:23.804Z,5271
2022-07-31T17:15:36.855Z,5308
2022-07-31T17:20:49.282Z,5294
2022-07-31T17:26:01.618Z,5292
2022-07-31T17:36:25.886Z,5264
2022-07-31T17:41:38.123Z,5285
2022-07-31T17:46:50.690Z,5280
2022-07-31T17:52:02.961Z,5269
2022-07-31T17:57:18.293Z,5172
2022-07-31T18:02:30.770Z,4751
2022-07-31T18:07:43.155Z,4508
2022-07-31T18:12:57.141Z,4142
2022-07-31T18:18:08.067Z,3210
2022-07-31T18:23:20.427Z,1982
2022-07-31T18:28:38.073Z,1676
2022-07-31T18:33:50.488Z,1288
2022-07-31T18:39:02.656Z,825
2022-07-31T18:44:15.131Z,420
2022-07-31T18:50:57.710Z,200
2022-07-31T18:54:39.923Z,4
2022-07-31T18:59:52.125Z,0
2022-07-31T19:10:29.786Z,0
2022-07-31T19:15:28.871Z,0
2022-07-31T19:20:57.567Z,0
2022-07-31T19:26:02.049Z,0
2022-07-31T19:31:06.033Z,0
2022-07-31T19:36:18.110Z,0
2022-07-31T19:41:30.385Z,0
2022-07-31T19:46:42.723Z,0
2022-07-31T19:51:55.112Z,0
2022-07-31T19:57:07.284Z,0
2022-07-31T20:02:19.563Z,0
2022-07-31T20:07:33.025Z,0
2022-07-31T20:12:44.341Z,0
2022-07-31T20:17:56.628Z,0
2022-07-31T20:23:09.063Z,0
2022-07-31T20:28:21.622Z,0
2022-07-31T20:33:33.520Z,0
2022-07-31T20:38:45.803Z,0
2022-07-31T20:43:58.160Z,0
2022-07-31T20:49:19.535Z,0
2022-07-31T20:54:34.266Z,0
2022-07-31T20:59:35.781Z,0
2022-07-31T21:04:47.881Z,0
2022-07-31T21:10:00.189Z,0
2022-07-31T21:15:18.849Z,0
2022-07-31T21:20:50.354Z,0
2022-07-31T21:25:37.909Z,0
2022-07-31T21:36:02.410Z,0
2022-07-31T21:41:14.761Z,0
2022-07-31T21:46:27.244Z,0
2022-07-31T21:56:51.803Z,0
2022-07-31T22:02:04.392Z,0
2022-07-31T22:12:28.867Z,0
2022-07-31T22:17:40.870Z,0
2022-07-31T22:22:53.081Z,0
2022-07-31T22:28:05.746Z,0
2022-07-31T22:33:18.282Z,0
2022-07-31T22:38:30.820Z,0
2022-07-31T22:44:11.768Z,0
2022-07-31T22:48:55.305Z,0
2022-07-31T22:54:08.383Z,0
2022-07-31T22:59:20.637Z,0
2022-07-31T23:04:33.045Z,0
2022-07-31T23:09:45.250Z,0
2022-07-31T23:14:57.415Z,0
2022-07-31T23:25:21.918Z,0
2022-07-31T23:30:34.255Z,0
2022-07-31T23:35:46.511Z,0
2022-07-31T23:40:58.980Z,0
2022-07-31T23:46:11.269Z,0
2022-07-31T23:51:23.661Z,0
2022-07-31T23:56:35.876Z,0
